Time;durP1;ratioP1;P1;durP2;ratioP2;P2;SDS_P1;SDS_P2;PMS_P1;PMS_P2;Temp;Humidity;BMP_temperature;BMP_pressure;BME280_temperature;BME280_humidity;BME280_pressure;Samples;Min_cycle;Max_cycle;Signal;HPM_P1;HPM_P2
2023/10/23 00:00:59;;;;;;;5.40;1.63;;;9.50;99.90;;;;;;4966462;28;20037;-72
2023/10/23 00:03:24;;;;;;;4.60;1.45;;;9.50;99.90;;;;;;4970081;28;20485;-72
2023/10/23 00:05:50;;;;;;;7.63;1.83;;;9.50;99.90;;;;;;4971573;28;20379;-73
2023/10/23 00:08:16;;;;;;;4.95;1.02;;;9.40;99.90;;;;;;4958255;28;20110;-75
2023/10/23 00:10:44;;;;;;;4.18;1.20;;;9.50;99.90;;;;;;4970423;28;20584;-74
2023/10/23 00:13:10;;;;;;;5.03;1.42;;;9.40;99.90;;;;;;4972431;28;20401;-72
2023/10/23 00:15:36;;;;;;;3.33;1.42;;;9.40;99.90;;;;;;4967706;28;20035;-72
2023/10/23 00:18:02;;;;;;;3.63;1.23;;;9.40;99.90;;;;;;4964255;28;20065;-72
2023/10/23 00:20:28;;;;;;;4.57;1.30;;;9.40;99.90;;;;;;4968444;28;20566;-74
2023/10/23 00:22:54;;;;;;;4.47;1.20;;;9.40;99.90;;;;;;4965987;28;20027;-72
2023/10/23 00:25:19;;;;;;;3.90;1.23;;;9.30;99.90;;;;;;4958333;28;20043;-72
2023/10/23 00:27:45;;;;;;;3.55;1.40;;;9.30;99.90;;;;;;4975781;28;20378;-72
2023/10/23 00:30:11;;;;;;;4.10;1.45;;;9.30;99.90;;;;;;4972072;28;20036;-72
2023/10/23 00:32:37;;;;;;;3.00;1.48;;;9.30;99.90;;;;;;4975932;28;20038;-72
2023/10/23 00:35:03;;;;;;;6.00;1.70;;;9.30;99.90;;;;;;4957694;28;20027;-72
2023/10/23 00:37:28;;;;;;;6.80;2.10;;;9.30;99.90;;;;;;4972448;28;20030;-72
2023/10/23 00:39:54;;;;;;;7.70;2.13;;;9.30;99.90;;;;;;4957963;28;20130;-72
2023/10/23 00:42:19;;;;;;;5.80;1.55;;;9.20;99.90;;;;;;4975322;28;20023;-71
2023/10/23 00:44:45;;;;;;;6.55;2.30;;;9.20;99.90;;;;;;4957778;28;20031;-73
2023/10/23 00:47:11;;;;;;;4.45;1.90;;;9.20;99.90;;;;;;4957593;28;20474;-73
2023/10/23 00:49:37;;;;;;;6.03;2.10;;;9.10;99.90;;;;;;4977382;28;20018;-74
2023/10/23 00:52:03;;;;;;;6.50;2.10;;;9.10;99.90;;;;;;4957791;28;20045;-74
2023/10/23 00:54:31;;;;;;;6.53;2.70;;;9.10;99.90;;;;;;4971211;28;20459;-73
2023/10/23 00:56:57;;;;;;;5.53;2.47;;;9.10;99.90;;;;;;4973999;28;20026;-73
2023/10/23 00:59:23;;;;;;;6.35;2.65;;;9.10;99.90;;;;;;4972428;28;20038;-72
2023/10/23 01:01:48;;;;;;;5.47;2.90;;;9.00;99.90;;;;;;4957404;28;20037;-72
2023/10/23 01:04:14;;;;;;;6.13;2.22;;;9.00;99.90;;;;;;4958350;28;20037;-73
2023/10/23 01:06:40;;;;;;;7.35;2.72;;;8.90;99.90;;;;;;4968646;28;20031;-73
2023/10/23 01:09:06;;;;;;;5.53;2.78;;;8.80;99.90;;;;;;4966477;28;20406;-73
2023/10/23 01:11:32;;;;;;;5.32;2.80;;;8.80;99.90;;;;;;4960723;28;20018;-72
2023/10/23 01:13:58;;;;;;;8.05;2.90;;;8.80;99.90;;;;;;4965494;28;20359;-73
2023/10/23 01:16:23;;;;;;;5.55;2.95;;;8.70;99.90;;;;;;4972374;28;20031;-73
2023/10/23 01:18:49;;;;;;;6.18;2.75;;;8.70;99.90;;;;;;4970470;28;20486;-73
2023/10/23 01:21:15;;;;;;;9.50;3.28;;;8.60;99.90;;;;;;4968323;28;20035;-72
2023/10/23 01:23:42;;;;;;;8.48;3.55;;;8.60;99.90;;;;;;4968307;28;20027;-71
2023/10/23 01:26:08;;;;;;;9.80;3.67;;;8.60;99.90;;;;;;4969670;28;20038;-71
2023/10/23 01:28:33;;;;;;;7.70;3.55;;;8.50;99.90;;;;;;4953687;28;20447;-74
2023/10/23 01:30:59;;;;;;;6.78;3.20;;;8.40;99.90;;;;;;4952956;28;20069;-70
2023/10/23 01:33:25;;;;;;;6.97;2.97;;;8.40;99.90;;;;;;4972102;28;20422;-72
2023/10/23 01:35:50;;;;;;;5.93;3.42;;;8.40;99.90;;;;;;4968281;28;20518;-73
2023/10/23 01:38:16;;;;;;;7.95;3.20;;;8.40;99.90;;;;;;4969962;28;20043;-72
2023/10/23 01:40:42;;;;;;;5.75;2.60;;;8.40;99.90;;;;;;4965943;28;20035;-72
2023/10/23 01:43:07;;;;;;;3.58;2.25;;;8.30;99.90;;;;;;4968820;28;20678;-73
2023/10/23 01:45:33;;;;;;;6.75;2.10;;;8.30;99.90;;;;;;4951329;28;20031;-72
2023/10/23 01:47:58;;;;;;;7.00;1.70;;;8.30;99.90;;;;;;4964074;28;20134;-73
2023/10/23 01:50:24;;;;;;;3.22;1.50;;;8.30;99.90;;;;;;4969483;28;20513;-72
2023/10/23 01:52:50;;;;;;;6.80;1.23;;;8.30;99.90;;;;;;4965085;28;20474;-71
2023/10/23 01:55:16;;;;;;;2.95;1.30;;;8.30;99.90;;;;;;4968898;28;20450;-72
2023/10/23 01:57:42;;;;;;;3.72;1.40;;;8.30;99.90;;;;;;4961539;28;20058;-71
2023/10/23 02:00:10;;;;;;;4.60;1.50;;;8.20;99.90;;;;;;4966942;28;20450;-71
2023/10/23 02:02:36;;;;;;;3.10;1.25;;;8.20;99.90;;;;;;4966795;28;20038;-72
2023/10/23 02:05:02;;;;;;;5.03;1.35;;;8.20;99.90;;;;;;4962484;28;20054;-72
2023/10/23 02:07:28;;;;;;;4.43;1.50;;;8.20;99.90;;;;;;4968041;28;20035;-72
2023/10/23 02:09:56;;;;;;;4.88;1.30;;;8.20;99.90;;;;;;4956100;28;20073;-74
2023/10/23 02:12:22;;;;;;;3.58;1.38;;;8.10;99.90;;;;;;4968447;28;20034;-72
2023/10/23 02:14:50;;;;;;;4.07;1.33;;;8.10;99.90;;;;;;4970137;28;20039;-71
2023/10/23 02:17:17;;;;;;;5.30;1.17;;;8.10;99.90;;;;;;4946865;28;20035;-71
2023/10/23 02:19:43;;;;;;;5.50;1.45;;;8.00;99.90;;;;;;4969750;28;20704;-71
2023/10/23 02:22:08;;;;;;;5.00;2.08;;;8.00;99.90;;;;;;4966421;28;20041;-71
2023/10/23 02:24:34;;;;;;;5.75;1.73;;;8.00;99.90;;;;;;4954531;28;20079;-72
2023/10/23 02:27:00;;;;;;;4.05;1.00;;;8.00;99.90;;;;;;4962478;28;20027;-72
2023/10/23 02:29:25;;;;;;;4.70;1.58;;;8.00;99.90;;;;;;4964005;28;20028;-73
2023/10/23 02:31:51;;;;;;;3.35;1.70;;;8.00;99.90;;;;;;4966829;28;20034;-72
2023/10/23 02:34:17;;;;;;;6.80;1.85;;;8.00;99.90;;;;;;4967765;28;20035;-72
2023/10/23 02:36:42;;;;;;;3.38;1.30;;;8.00;99.90;;;;;;4956441;28;20027;-73
2023/10/23 02:39:09;;;;;;;3.72;1.40;;;7.90;99.90;;;;;;4966510;28;20537;-71
2023/10/23 02:41:35;;;;;;;3.85;1.55;;;7.90;99.90;;;;;;4966670;28;20054;-72
2023/10/23 02:44:01;;;;;;;6.15;1.88;;;7.80;99.90;;;;;;4967121;28;20572;-71
2023/10/23 02:46:26;;;;;;;7.63;1.83;;;7.80;99.90;;;;;;4952162;28;20026;-72
2023/10/23 02:48:52;;;;;;;3.15;1.25;;;7.80;99.90;;;;;;4965378;28;20391;-72
2023/10/23 02:51:18;;;;;;;5.40;1.83;;;7.70;99.90;;;;;;4965750;28;20031;-72
2023/10/23 02:53:43;;;;;;;6.47;1.95;;;7.70;99.90;;;;;;4948992;28;20027;-72
2023/10/23 02:56:13;;;;;;;4.10;1.38;;;7.70;99.90;;;;;;4965400;28;20031;-71
2023/10/23 02:58:38;;;;;;;8.00;1.92;;;7.70;99.90;;;;;;4966888;28;20866;-72
2023/10/23 03:01:15;;;;;;;5.13;2.03;;;7.60;99.90;;;;;;4967161;28;20031;-72
2023/10/23 03:03:41;;;;;;;2.33;1.30;;;7.70;99.90;;;;;;4962302;28;20103;-72
2023/10/23 03:06:06;;;;;;;6.28;1.80;;;7.60;99.90;;;;;;4966568;28;20167;-72
2023/10/23 03:08:32;;;;;;;5.35;1.95;;;7.60;99.90;;;;;;4965972;28;20031;-72
2023/10/23 03:10:57;;;;;;;3.08;1.80;;;7.60;99.90;;;;;;4961069;28;20030;-72
2023/10/23 03:13:23;;;;;;;3.40;1.67;;;7.60;99.90;;;;;;4965902;28;20107;-73
2023/10/23 03:15:49;;;;;;;7.13;1.98;;;7.60;99.90;;;;;;4967415;28;20462;-73
2023/10/23 03:18:14;;;;;;;4.30;1.60;;;7.60;99.90;;;;;;4970413;28;20081;-75
2023/10/23 03:20:40;;;;;;;3.10;1.60;;;7.60;99.90;;;;;;4955459;28;20498;-74
2023/10/23 03:23:06;;;;;;;4.55;1.73;;;7.60;99.90;;;;;;4974602;28;20035;-72
2023/10/23 03:25:31;;;;;;;7.88;2.10;;;7.60;99.90;;;;;;4970046;28;20090;-74
2023/10/23 03:27:57;;;;;;;7.07;1.98;;;7.60;99.90;;;;;;4964548;28;20482;-72
2023/10/23 03:30:23;;;;;;;6.65;1.25;;;7.60;99.90;;;;;;4965821;28;20050;-73
2023/10/23 03:32:49;;;;;;;6.25;1.70;;;7.50;99.90;;;;;;4953694;28;20034;-74
2023/10/23 03:35:14;;;;;;;3.97;1.73;;;7.50;99.90;;;;;;4971650;28;20070;-72
2023/10/23 03:37:40;;;;;;;5.78;2.10;;;7.60;99.90;;;;;;4971545;28;20034;-73
2023/10/23 03:40:06;;;;;;;4.80;1.58;;;7.50;99.90;;;;;;4972470;28;20034;-73
2023/10/23 03:42:32;;;;;;;5.07;1.67;;;7.50;99.90;;;;;;4971920;28;20741;-73
2023/10/23 03:44:57;;;;;;;4.40;1.70;;;7.50;99.90;;;;;;4969765;28;20086;-72
2023/10/23 03:47:23;;;;;;;4.22;1.58;;;7.50;99.90;;;;;;4968720;28;20122;-73
2023/10/23 03:49:49;;;;;;;5.20;1.35;;;7.50;99.90;;;;;;4952822;28;20387;-73
2023/10/23 03:52:14;;;;;;;8.82;1.73;;;7.50;99.90;;;;;;4969975;28;20031;-72
2023/10/23 03:54:40;;;;;;;3.10;1.45;;;7.40;99.90;;;;;;4968177;28;20026;-73
2023/10/23 03:57:05;;;;;;;6.72;1.98;;;7.40;99.90;;;;;;4967881;28;20057;-73
2023/10/23 03:59:31;;;;;;;2.08;1.13;;;7.40;99.90;;;;;;4968561;28;20062;-72
2023/10/23 04:01:57;;;;;;;3.47;1.35;;;7.40;99.90;;;;;;4970149;28;20035;-73
2023/10/23 04:04:22;;;;;;;3.45;1.55;;;7.30;99.90;;;;;;4970493;28;20100;-73
2023/10/23 04:06:48;;;;;;;5.85;1.92;;;7.30;99.90;;;;;;4957366;28;20042;-73
2023/10/23 04:09:13;;;;;;;6.97;2.38;;;7.30;99.90;;;;;;4971478;28;20393;-72
2023/10/23 04:11:39;;;;;;;4.60;1.98;;;7.20;99.90;;;;;;4965857;28;20146;-73
2023/10/23 04:14:05;;;;;;;3.17;1.60;;;7.20;99.90;;;;;;4970423;28;20035;-74
2023/10/23 04:16:30;;;;;;;5.55;1.70;;;7.20;99.90;;;;;;4967040;28;20041;-72
2023/10/23 04:18:56;;;;;;;4.97;1.95;;;7.20;99.90;;;;;;4970377;28;20027;-72
2023/10/23 04:21:23;;;;;;;3.10;1.48;;;7.10;99.90;;;;;;4952166;28;20038;-72
2023/10/23 04:23:49;;;;;;;5.70;2.20;;;7.10;99.90;;;;;;4957214;28;20034;-72
2023/10/23 04:26:15;;;;;;;6.40;1.77;;;7.00;99.90;;;;;;4969534;28;20026;-72
2023/10/23 04:28:40;;;;;;;6.88;1.67;;;7.00;99.90;;;;;;4956820;28;20034;-72
2023/10/23 04:31:06;;;;;;;8.07;2.28;;;7.00;99.90;;;;;;4965564;28;20426;-74
2023/10/23 04:33:32;;;;;;;5.05;2.17;;;6.90;99.90;;;;;;4971444;28;20035;-71
2023/10/23 04:35:59;;;;;;;5.60;2.60;;;6.90;99.90;;;;;;4966433;28;20043;-72
2023/10/23 04:38:25;;;;;;;6.20;2.83;;;6.90;99.90;;;;;;4969860;28;20086;-73
2023/10/23 04:40:53;;;;;;;3.95;2.40;;;6.80;99.90;;;;;;4955700;28;20023;-73
2023/10/23 04:43:19;;;;;;;7.18;2.47;;;6.80;99.90;;;;;;4956114;28;20043;-72
2023/10/23 04:45:45;;;;;;;6.00;1.95;;;6.80;99.90;;;;;;4955743;29;20081;-71
2023/10/23 04:48:10;;;;;;;7.38;3.15;;;6.80;99.90;;;;;;4955938;29;20498;-73
2023/10/23 04:50:37;;;;;;;7.18;2.83;;;6.70;99.90;;;;;;4955646;29;20028;-72
2023/10/23 04:53:03;;;;;;;7.78;2.70;;;6.70;99.90;;;;;;4955480;29;20102;-72
2023/10/23 04:55:40;;;;;;;6.75;2.75;;;6.70;99.90;;;;;;4955691;29;20483;-73
2023/10/23 04:58:07;;;;;;;5.50;2.42;;;6.60;99.90;;;;;;4955673;29;20054;-72
2023/10/23 05:00:37;;;;;;;4.32;2.63;;;6.60;99.90;;;;;;4948234;28;20035;-73
2023/10/23 05:03:03;;;;;;;4.82;2.70;;;6.60;99.90;;;;;;4994192;28;20034;-73
2023/10/23 05:05:32;;;;;;;5.18;2.33;;;6.60;99.90;;;;;;4958804;28;20122;-73
2023/10/23 05:07:58;;;;;;;6.68;2.78;;;6.50;99.90;;;;;;4957309;28;20115;-72
2023/10/23 05:10:24;;;;;;;12.00;2.95;;;6.60;99.90;;;;;;4973105;28;20027;-75
2023/10/23 05:12:50;;;;;;;5.43;2.47;;;6.60;99.90;;;;;;4969034;28;20041;-75
2023/10/23 05:15:16;;;;;;;8.27;2.72;;;6.60;99.90;;;;;;4958497;28;20506;-75
2023/10/23 05:17:42;;;;;;;4.18;2.50;;;6.60;99.90;;;;;;4971070;28;20027;-75
2023/10/23 05:20:08;;;;;;;5.75;2.42;;;6.70;99.90;;;;;;4968880;28;20715;-75
2023/10/23 05:22:34;;;;;;;9.73;2.85;;;6.70;99.90;;;;;;4967286;28;20038;-74
2023/10/23 05:25:00;;;;;;;6.88;2.83;;;6.80;99.90;;;;;;4969193;28;20695;-73
2023/10/23 05:27:26;;;;;;;5.03;2.92;;;6.80;99.90;;;;;;4954582;28;20069;-73
2023/10/23 05:29:51;;;;;;;8.93;3.33;;;6.80;99.90;;;;;;4958164;28;20109;-72
2023/10/23 05:32:17;;;;;;;7.10;2.97;;;6.80;99.90;;;;;;4956055;28;20126;-72
2023/10/23 05:34:46;;;;;;;12.18;4.20;;;6.80;99.90;;;;;;4973674;28;20023;-75
2023/10/23 05:37:12;;;;;;;7.95;3.67;;;6.80;99.90;;;;;;4974431;28;20027;-74
2023/10/23 05:39:38;;;;;;;10.15;3.13;;;6.70;99.90;;;;;;4976359;28;20031;-73
2023/10/23 05:42:04;;;;;;;6.50;2.67;;;6.70;99.90;;;;;;4974175;28;20478;-72
2023/10/23 05:44:30;;;;;;;8.57;2.75;;;6.70;99.90;;;;;;4970259;28;20035;-73
2023/10/23 05:46:55;;;;;;;4.65;2.67;;;6.70;99.90;;;;;;4965169;28;20058;-73
2023/10/23 05:49:21;;;;;;;6.90;3.10;;;6.70;99.90;;;;;;4972527;28;20042;-74
2023/10/23 05:51:47;;;;;;;7.30;2.63;;;6.60;99.90;;;;;;4974246;28;20023;-73
2023/10/23 05:54:13;;;;;;;7.45;3.15;;;6.60;99.90;;;;;;4951718;28;20030;-75
2023/10/23 05:56:38;;;;;;;6.07;2.72;;;6.60;99.90;;;;;;4970287;28;20110;-74
2023/10/23 05:59:04;;;;;;;6.63;2.97;;;6.50;99.90;;;;;;4968025;28;20113;-75
2023/10/23 06:01:30;;;;;;;7.63;3.97;;;6.50;99.90;;;;;;4982669;28;20502;-73
2023/10/23 06:03:56;;;;;;;11.35;3.55;;;6.50;99.90;;;;;;4964870;28;20099;-74
2023/10/23 06:06:22;;;;;;;7.20;3.22;;;6.50;99.90;;;;;;4956225;29;20070;-75
2023/10/23 06:08:47;;;;;;;10.30;3.42;;;6.50;99.90;;;;;;4969228;28;20029;-75
2023/10/23 06:11:13;;;;;;;6.70;2.88;;;6.50;99.90;;;;;;4956884;28;20038;-74
2023/10/23 06:13:39;;;;;;;9.48;2.50;;;6.40;99.90;;;;;;4975628;28;20474;-74
2023/10/23 06:16:07;;;;;;;7.88;2.90;;;6.40;99.90;;;;;;4963758;28;20023;-74
2023/10/23 06:18:36;;;;;;;6.72;2.58;;;6.40;99.90;;;;;;4976216;28;20038;-74
2023/10/23 06:21:03;;;;;;;9.98;3.72;;;6.40;99.90;;;;;;4986749;28;20486;-73
2023/10/23 06:23:46;;;;;;;6.47;2.65;;;6.30;99.90;;;;;;4979231;28;20023;-74
2023/10/23 06:26:12;;;;;;;7.40;2.95;;;6.40;99.90;;;;;;4972065;28;20026;-72
2023/10/23 06:28:38;;;;;;;5.93;2.97;;;6.40;99.90;;;;;;4976170;28;20034;-72
2023/10/23 06:31:10;;;;;;;8.40;3.05;;;6.40;99.90;;;;;;4968673;28;20028;-73
2023/10/23 06:33:38;;;;;;;8.00;2.75;;;6.50;99.90;;;;;;4967045;28;20027;-74
2023/10/23 06:36:05;;;;;;;7.40;3.30;;;6.50;99.90;;;;;;4974578;28;20034;-73
2023/10/23 06:38:31;;;;;;;11.52;3.53;;;6.60;99.90;;;;;;4967669;28;20535;-74
2023/10/23 06:41:02;;;;;;;9.25;3.67;;;6.60;99.90;;;;;;4974124;28;20038;-73
2023/10/23 06:43:27;;;;;;;9.07;3.55;;;6.70;99.90;;;;;;4973888;28;20023;-73
2023/10/23 06:45:55;;;;;;;9.82;3.75;;;6.70;99.90;;;;;;4973636;28;20111;-74
2023/10/23 06:48:20;;;;;;;9.27;4.18;;;6.70;99.90;;;;;;4974463;28;20454;-74
2023/10/23 06:50:49;;;;;;;8.27;4.00;;;6.70;99.90;;;;;;4971523;28;20089;-75
2023/10/23 06:53:15;;;;;;;9.63;4.05;;;6.70;99.90;;;;;;4971450;28;20030;-75
2023/10/23 06:56:09;;;;;;;8.90;4.70;;;6.70;99.90;;;;;;4970354;28;20098;-75
2023/10/23 06:58:35;;;;;;;7.25;4.82;;;6.70;99.90;;;;;;4964149;28;20037;-75
2023/10/23 07:01:08;;;;;;;9.23;5.03;;;6.80;99.90;;;;;;4955934;28;20034;-75
2023/10/23 07:03:35;;;;;;;9.65;4.80;;;6.80;99.90;;;;;;4968429;28;20019;-75
2023/10/23 07:06:07;;;;;;;11.07;4.47;;;6.80;99.90;;;;;;4974326;28;20410;-75
2023/10/23 07:08:34;;;;;;;10.55;4.25;;;6.90;99.90;;;;;;4974992;28;20027;-74
2023/10/23 07:11:00;;;;;;;13.63;4.32;;;6.90;99.90;;;;;;4974217;28;20117;-74
2023/10/23 07:13:25;;;;;;;13.05;4.15;;;7.00;99.90;;;;;;4972363;28;20101;-74
2023/10/23 07:15:51;;;;;;;15.48;4.45;;;7.10;99.90;;;;;;4967584;28;20027;-75
2023/10/23 07:18:17;;;;;;;8.85;4.00;;;7.10;99.90;;;;;;4970537;28;20109;-75
2023/10/23 07:20:57;;;;;;;10.32;4.70;;;7.20;99.90;;;;;;4974543;28;20264;-75
2023/10/23 07:23:23;;;;;;;10.77;5.10;;;7.20;99.90;;;;;;4960378;28;20026;-75
2023/10/23 07:25:59;;;;;;;11.85;4.88;;;7.20;99.90;;;;;;4963751;28;20035;-75
2023/10/23 07:28:25;;;;;;;15.52;5.63;;;7.20;99.90;;;;;;4956161;28;20042;-75
2023/10/23 07:30:50;;;;;;;10.75;5.70;;;7.30;99.90;;;;;;4975510;28;20375;-75
2023/10/23 07:33:16;;;;;;;11.60;6.07;;;7.30;99.90;;;;;;4976796;28;20030;-75
2023/10/23 07:35:41;;;;;;;10.98;6.43;;;7.30;99.90;;;;;;4975999;28;20116;-75
2023/10/23 07:38:07;;;;;;;13.27;7.50;;;7.30;99.90;;;;;;4970774;28;20019;-76
2023/10/23 07:40:32;;;;;;;10.73;5.50;;;7.30;99.90;;;;;;4972069;28;20034;-75
2023/10/23 07:42:58;;;;;;;13.38;5.22;;;7.30;99.90;;;;;;4972682;28;20497;-76
2023/10/23 07:45:24;;;;;;;11.77;5.50;;;7.40;99.90;;;;;;4968806;28;20023;-75
2023/10/23 07:47:50;;;;;;;9.73;4.20;;;7.30;99.90;;;;;;4958505;28;20027;-75
2023/10/23 07:50:16;;;;;;;10.13;3.97;;;7.40;99.90;;;;;;4972745;28;20031;-75
2023/10/23 07:52:42;;;;;;;5.93;3.60;;;7.40;99.90;;;;;;4958181;28;20031;-75
2023/10/23 07:55:08;;;;;;;9.02;4.65;;;7.40;99.90;;;;;;4954583;28;20038;-75
2023/10/23 07:57:33;;;;;;;9.43;4.10;;;7.50;99.90;;;;;;4971401;28;20568;-76
2023/10/23 07:59:59;;;;;;;10.27;3.65;;;7.50;99.90;;;;;;4974301;28;20031;-75
2023/10/23 08:02:25;;;;;;;12.75;4.53;;;7.60;99.90;;;;;;4959555;28;20390;-75
2023/10/23 08:04:51;;;;;;;9.10;4.22;;;7.60;99.90;;;;;;4972188;28;20023;-74
2023/10/23 08:07:16;;;;;;;11.10;4.68;;;7.70;99.90;;;;;;4971923;28;20035;-75
2023/10/23 08:09:42;;;;;;;11.15;4.18;;;7.70;99.90;;;;;;4974162;28;20394;-75
2023/10/23 08:12:08;;;;;;;8.88;4.55;;;7.70;99.90;;;;;;4974579;28;20082;-75
2023/10/23 08:14:34;;;;;;;8.35;4.40;;;7.80;99.90;;;;;;4973348;28;20034;-75
2023/10/23 08:16:59;;;;;;;9.50;4.50;;;7.80;99.90;;;;;;4975427;28;20537;-75
2023/10/23 08:19:26;;;;;;;8.77;4.93;;;7.90;99.90;;;;;;4957748;28;20031;-75
2023/10/23 08:21:52;;;;;;;12.85;5.25;;;7.90;99.90;;;;;;4973660;28;20039;-75
2023/10/23 08:24:17;;;;;;;10.25;4.32;;;7.90;99.90;;;;;;4971705;28;20026;-75
2023/10/23 08:26:43;;;;;;;9.30;4.35;;;8.00;99.90;;;;;;4972409;28;20099;-74
2023/10/23 08:29:09;;;;;;;9.55;4.97;;;8.00;99.90;;;;;;4973424;28;20181;-75
2023/10/23 08:31:34;;;;;;;11.65;5.10;;;8.00;99.90;;;;;;4969743;28;20035;-75
2023/10/23 08:34:00;;;;;;;9.43;3.78;;;8.10;99.90;;;;;;4973696;28;20018;-75
2023/10/23 08:36:26;;;;;;;7.90;4.28;;;8.10;99.90;;;;;;4957952;28;20034;-76
2023/10/23 08:38:51;;;;;;;8.85;3.78;;;8.20;99.90;;;;;;4970481;28;20035;-76
2023/10/23 08:41:17;;;;;;;7.63;4.25;;;8.20;99.90;;;;;;4955091;28;20031;-75
2023/10/23 08:43:43;;;;;;;9.15;4.15;;;8.20;99.90;;;;;;4959322;28;20062;-75
2023/10/23 08:46:09;;;;;;;17.08;4.95;;;8.20;99.90;;;;;;4971628;28;20063;-76
2023/10/23 08:48:38;;;;;;;10.85;4.25;;;8.20;99.90;;;;;;4974003;28;20422;-75
2023/10/23 08:51:06;;;;;;;8.88;3.85;;;8.30;99.90;;;;;;4970815;28;20050;-74
2023/10/23 08:53:34;;;;;;;6.57;4.15;;;8.30;99.90;;;;;;4953856;28;20026;-75
2023/10/23 08:56:05;;;;;;;6.93;4.25;;;8.40;99.90;;;;;;4976561;28;20054;-74
2023/10/23 08:58:35;;;;;;;11.02;4.15;;;8.40;99.90;;;;;;4972601;28;20026;-75
2023/10/23 09:01:01;;;;;;;7.25;3.72;;;8.50;99.90;;;;;;4972139;28;20042;-75
2023/10/23 09:03:28;;;;;;;9.88;4.40;;;8.60;99.90;;;;;;4959758;28;20045;-75
2023/10/23 09:05:56;;;;;;;8.23;3.80;;;8.60;99.90;;;;;;4969192;28;20094;-75
2023/10/23 09:08:22;;;;;;;5.30;3.28;;;8.70;99.90;;;;;;4973992;28;20061;-75
2023/10/23 09:11:04;;;;;;;7.38;3.70;;;8.70;99.90;;;;;;4972645;28;20479;-75
2023/10/23 09:13:36;;;;;;;8.52;4.43;;;8.80;99.90;;;;;;4956217;28;20114;-74
2023/10/23 09:16:03;;;;;;;6.43;3.47;;;8.80;99.90;;;;;;4967333;28;20169;-75
2023/10/23 09:18:29;;;;;;;9.13;4.82;;;8.90;99.90;;;;;;4958465;28;20033;-75
2023/10/23 09:20:56;;;;;;;8.43;5.03;;;8.90;99.90;;;;;;4968536;28;20023;-74
2023/10/23 09:23:21;;;;;;;8.38;4.35;;;9.00;99.90;;;;;;4967834;28;20121;-75
2023/10/23 09:25:49;;;;;;;7.05;4.18;;;9.00;99.90;;;;;;4960565;28;20460;-75
2023/10/23 09:28:14;;;;;;;5.97;3.75;;;9.00;99.90;;;;;;4956148;28;20126;-75
2023/10/23 09:30:42;;;;;;;5.57;3.47;;;9.00;99.90;;;;;;4958743;28;20126;-73
2023/10/23 09:33:10;;;;;;;7.28;4.60;;;9.00;99.90;;;;;;4973369;28;20498;-73
2023/10/23 09:35:36;;;;;;;7.53;3.33;;;9.00;99.90;;;;;;4973776;28;20436;-72
2023/10/23 09:38:14;;;;;;;7.93;3.85;;;9.10;99.90;;;;;;4973258;28;20027;-73
2023/10/23 09:40:40;;;;;;;8.90;5.05;;;9.10;99.90;;;;;;4967102;28;20109;-72
2023/10/23 09:43:07;;;;;;;8.93;3.72;;;9.30;99.90;;;;;;4976856;28;20062;-72
2023/10/23 09:45:33;;;;;;;9.65;3.85;;;9.30;99.90;;;;;;4969370;28;20034;-73
2023/10/23 09:48:01;;;;;;;10.57;3.88;;;9.30;99.90;;;;;;4954011;28;20035;-73
2023/10/23 09:50:27;;;;;;;8.02;4.18;;;9.40;99.90;;;;;;4971389;28;20027;-72
2023/10/23 09:52:56;;;;;;;10.55;4.18;;;9.40;99.90;;;;;;4952332;28;20027;-73
2023/10/23 09:55:26;;;;;;;9.40;4.68;;;9.50;99.90;;;;;;4973721;28;20114;-73
2023/10/23 09:57:54;;;;;;;8.75;4.82;;;9.60;99.90;;;;;;4973336;28;20081;-73
2023/10/23 10:00:22;;;;;;;7.30;4.30;;;9.70;99.90;;;;;;4966785;28;20127;-73
2023/10/23 10:02:58;;;;;;;13.30;4.72;;;9.70;99.90;;;;;;4958468;28;20031;-74
2023/10/23 10:05:40;;;;;;;13.52;5.10;;;9.80;99.90;;;;;;4956903;28;20034;-73
2023/10/23 10:08:13;;;;;;;9.65;4.90;;;9.90;99.90;;;;;;4973445;28;20035;-73
2023/10/23 10:10:40;;;;;;;7.22;4.10;;;9.90;99.90;;;;;;4972542;28;20025;-73
2023/10/23 10:13:06;;;;;;;8.57;3.85;;;10.00;99.90;;;;;;4972846;28;20034;-73
2023/10/23 10:15:33;;;;;;;8.38;4.07;;;10.10;99.90;;;;;;4970025;28;20039;-73
2023/10/23 10:17:58;;;;;;;8.52;4.72;;;10.20;99.90;;;;;;4971008;28;20023;-73
2023/10/23 10:20:25;;;;;;;9.07;4.40;;;10.20;99.90;;;;;;4972660;28;20103;-73
2023/10/23 10:23:11;;;;;;;10.43;4.20;;;10.30;99.90;;;;;;4956092;28;20019;-73
2023/10/23 10:25:38;;;;;;;8.40;4.15;;;10.40;99.90;;;;;;4973158;28;20019;-73
2023/10/23 10:28:07;;;;;;;7.57;4.95;;;10.40;99.90;;;;;;4972953;28;20030;-73
2023/10/23 10:30:46;;;;;;;9.00;4.55;;;10.50;99.90;;;;;;4973336;28;20018;-73
2023/10/23 10:33:15;;;;;;;9.02;4.55;;;10.60;99.90;;;;;;4975735;28;20034;-72
2023/10/23 10:35:46;;;;;;;8.57;3.55;;;10.60;99.90;;;;;;4972756;28;20027;-73
2023/10/23 10:38:15;;;;;;;8.25;4.13;;;10.50;99.90;;;;;;4973019;28;20107;-72
2023/10/23 10:41:01;;;;;;;8.30;4.28;;;10.60;99.90;;;;;;4962674;28;20410;-74
2023/10/23 10:43:40;;;;;;;8.95;4.80;;;10.60;99.90;;;;;;4955664;28;20030;-73
2023/10/23 10:46:22;;;;;;;13.52;4.03;;;10.70;99.90;;;;;;4975876;28;20034;-72
2023/10/23 10:48:50;;;;;;;8.70;4.20;;;10.80;99.90;;;;;;4971240;28;20018;-73
2023/10/23 10:51:34;;;;;;;7.70;4.32;;;10.80;99.90;;;;;;4970747;28;20026;-74
2023/10/23 10:54:06;;;;;;;8.52;4.63;;;10.90;99.90;;;;;;4970588;28;20037;-73
2023/10/23 10:56:32;;;;;;;12.65;4.10;;;10.90;99.90;;;;;;4971509;28;20035;-73
2023/10/23 10:59:01;;;;;;;7.15;4.00;;;11.00;99.90;;;;;;4971824;28;20027;-73
2023/10/23 11:01:27;;;;;;;9.85;4.72;;;11.10;99.90;;;;;;4953382;28;20027;-73
2023/10/23 11:03:53;;;;;;;7.60;4.70;;;11.10;99.90;;;;;;4962947;28;20097;-73
2023/10/23 11:06:18;;;;;;;13.30;5.38;;;11.20;99.90;;;;;;4969809;28;20610;-74
2023/10/23 11:08:46;;;;;;;13.48;5.13;;;11.20;99.90;;;;;;4967141;28;20031;-73
2023/10/23 11:11:12;;;;;;;10.23;4.25;;;11.30;99.90;;;;;;4976131;28;20034;-73
2023/10/23 11:13:37;;;;;;;7.70;4.03;;;11.40;99.90;;;;;;4968149;28;20023;-73
2023/10/23 11:16:04;;;;;;;9.10;4.05;;;11.40;99.90;;;;;;4972198;28;20034;-74
2023/10/23 11:18:30;;;;;;;8.43;3.53;;;11.40;99.90;;;;;;4970289;28;20023;-74
2023/10/23 11:21:00;;;;;;;9.93;3.95;;;11.50;99.90;;;;;;4970054;28;20029;-73
2023/10/23 11:23:28;;;;;;;7.75;4.07;;;11.50;99.90;;;;;;4972181;28;20514;-73
2023/10/23 11:25:54;;;;;;;9.77;4.68;;;11.50;99.90;;;;;;4970658;28;20043;-73
2023/10/23 11:28:21;;;;;;;7.43;4.18;;;11.50;99.90;;;;;;4962581;28;20037;-73
2023/10/23 11:30:49;;;;;;;7.93;4.60;;;11.50;99.90;;;;;;4967292;28;20054;-73
2023/10/23 11:33:16;;;;;;;12.20;4.45;;;11.50;99.90;;;;;;4949793;29;20023;-72
2023/10/23 11:35:42;;;;;;;8.15;4.43;;;11.50;99.90;;;;;;4971459;28;20397;-73
2023/10/23 11:38:15;;;;;;;10.18;4.80;;;11.50;99.90;;;;;;4972356;28;20027;-72
2023/10/23 11:40:42;;;;;;;12.65;4.70;;;11.50;99.90;;;;;;4960543;28;20023;-73
2023/10/23 11:43:13;;;;;;;10.02;4.57;;;11.50;99.90;;;;;;4969580;28;20067;-73
2023/10/23 11:45:39;;;;;;;10.25;4.65;;;11.50;99.90;;;;;;4965348;28;20023;-73
2023/10/23 11:48:09;;;;;;;10.43;4.75;;;11.60;99.90;;;;;;4971632;28;20034;-73
2023/10/23 11:50:36;;;;;;;17.85;5.38;;;11.60;99.90;;;;;;4973713;28;20041;-73
2023/10/23 11:53:05;;;;;;;10.93;4.78;;;11.60;99.90;;;;;;4973668;28;20082;-73
2023/10/23 11:55:31;;;;;;;8.93;4.40;;;11.70;99.90;;;;;;4956933;28;20018;-72
2023/10/23 11:57:57;;;;;;;13.38;4.88;;;11.70;99.90;;;;;;4979446;28;20038;-72
2023/10/23 12:00:23;;;;;;;9.68;4.80;;;11.70;99.90;;;;;;4974500;28;20560;-73
2023/10/23 12:02:50;;;;;;;12.00;4.97;;;11.80;99.90;;;;;;4975219;28;20027;-73
2023/10/23 12:05:21;;;;;;;9.93;5.00;;;11.80;99.90;;;;;;4976942;28;20030;-73
2023/10/23 12:07:52;;;;;;;10.30;4.78;;;11.90;99.90;;;;;;4966600;28;20031;-73
2023/10/23 12:10:20;;;;;;;10.07;4.90;;;12.00;99.90;;;;;;4974455;28;20026;-73
2023/10/23 12:12:47;;;;;;;9.27;4.82;;;12.00;99.90;;;;;;4971119;28;20046;-72
2023/10/23 12:15:14;;;;;;;11.20;5.07;;;12.10;99.90;;;;;;4972720;28;20034;-73
2023/10/23 12:17:41;;;;;;;10.40;5.03;;;12.10;99.90;;;;;;4975749;28;20031;-73
2023/10/23 12:20:09;;;;;;;7.85;4.90;;;12.10;99.90;;;;;;4974930;28;20031;-73
2023/10/23 12:22:44;;;;;;;10.02;4.65;;;12.20;99.90;;;;;;4974921;28;20038;-74
2023/10/23 12:25:11;;;;;;;11.05;4.53;;;12.20;99.90;;;;;;4975288;28;20034;-73
2023/10/23 12:27:39;;;;;;;9.25;4.95;;;12.20;99.90;;;;;;4974707;28;20479;-73
2023/10/23 12:30:06;;;;;;;7.53;3.90;;;12.20;99.90;;;;;;4975181;28;20106;-74
2023/10/23 12:32:32;;;;;;;7.05;4.35;;;12.20;99.90;;;;;;4968904;28;20028;-74
2023/10/23 12:34:57;;;;;;;8.43;4.57;;;12.30;99.90;;;;;;4973165;28;20098;-74
2023/10/23 12:37:25;;;;;;;11.10;5.15;;;12.30;99.90;;;;;;4973743;28;20114;-72
2023/10/23 12:39:51;;;;;;;11.55;3.92;;;12.20;99.90;;;;;;4973414;28;20382;-74
2023/10/23 12:42:17;;;;;;;9.07;3.88;;;12.20;99.90;;;;;;4973241;28;20027;-74
2023/10/23 12:44:44;;;;;;;12.45;4.70;;;12.20;99.90;;;;;;4960641;28;20549;-74
2023/10/23 12:47:10;;;;;;;11.40;5.32;;;12.20;99.90;;;;;;4976520;28;20498;-73
2023/10/23 12:49:36;;;;;;;9.07;4.70;;;12.20;99.90;;;;;;4956879;28;20031;-73
2023/10/23 12:52:02;;;;;;;13.68;5.05;;;12.10;99.90;;;;;;4957585;28;20026;-73